Time;durP1;ratioP1;P1;durP2;ratioP2;P2;SDS_P1;SDS_P2;PMS_P1;PMS_P2;Temp;Humidity;BMP_temperature;BMP_pressure;BME280_temperature;BME280_humidity;BME280_pressure;Samples;Min_cycle;Max_cycle;Signal;HPM_P1;HPM_P2
2023/12/20 00:01:01;;;;;;;5.55;5.05;;;10.30;99.90;;;;;;5068639;28;20582;-74
2023/12/20 00:03:27;;;;;;;5.57;5.00;;;10.30;99.90;;;;;;5070824;28;20634;-74
2023/12/20 00:05:52;;;;;;;6.27;5.67;;;10.30;99.90;;;;;;5068267;28;20721;-74
2023/12/20 00:08:18;;;;;;;6.20;5.60;;;10.30;99.90;;;;;;5064354;28;20270;-74
2023/12/20 00:10:44;;;;;;;6.27;5.77;;;10.30;99.90;;;;;;5068045;28;20227;-74
2023/12/20 00:13:10;;;;;;;5.70;5.20;;;10.30;99.90;;;;;;5057231;28;20242;-74
2023/12/20 00:15:36;;;;;;;5.15;4.65;;;10.30;99.90;;;;;;5065487;28;20212;-74
2023/12/20 00:18:02;;;;;;;5.80;4.97;;;10.30;99.90;;;;;;5057044;28;20264;-74
2023/12/20 00:20:28;;;;;;;5.70;5.00;;;10.30;99.90;;;;;;5050025;28;20173;-74
2023/12/20 00:22:57;;;;;;;6.32;5.72;;;10.30;99.90;;;;;;5068244;28;20602;-75
2023/12/20 00:25:24;;;;;;;5.15;4.72;;;10.30;99.90;;;;;;5069110;28;20222;-75
2023/12/20 00:27:50;;;;;;;5.18;4.38;;;10.30;99.90;;;;;;5068852;28;20242;-75
2023/12/20 00:30:15;;;;;;;5.47;4.93;;;10.30;99.90;;;;;;5058420;28;20184;-75
2023/12/20 00:32:46;;;;;;;4.53;4.13;;;10.30;99.90;;;;;;5048578;28;20582;-75
2023/12/20 00:35:15;;;;;;;4.03;3.63;;;10.30;99.90;;;;;;5063446;28;20172;-75
2023/12/20 00:37:40;;;;;;;7.15;5.38;;;10.20;99.90;;;;;;5052821;28;20602;-75
2023/12/20 00:40:06;;;;;;;4.70;4.30;;;10.20;99.90;;;;;;5061642;28;20172;-75
2023/12/20 00:42:33;;;;;;;4.00;3.60;;;10.20;99.90;;;;;;5069710;28;20594;-75
2023/12/20 00:44:59;;;;;;;3.92;3.35;;;10.20;99.90;;;;;;5058747;28;20181;-74
2023/12/20 00:47:25;;;;;;;3.15;2.80;;;10.20;99.90;;;;;;5048343;28;20204;-75
2023/12/20 00:49:51;;;;;;;3.53;2.63;;;10.20;99.90;;;;;;5067472;28;20836;-74
2023/12/20 00:52:18;;;;;;;4.00;3.13;;;10.10;99.90;;;;;;5068281;28;20581;-74
2023/12/20 00:54:44;;;;;;;2.83;2.35;;;10.10;99.90;;;;;;5059975;28;20580;-74
2023/12/20 00:57:10;;;;;;;2.63;2.38;;;10.10;99.90;;;;;;5048494;28;20207;-74
2023/12/20 00:59:36;;;;;;;3.33;2.90;;;10.10;99.90;;;;;;5048621;28;20177;-74
2023/12/20 01:02:02;;;;;;;3.60;2.63;;;10.00;99.90;;;;;;5059715;28;20405;-74
2023/12/20 01:04:27;;;;;;;5.67;3.20;;;10.00;99.90;;;;;;5065594;28;20226;-74
2023/12/20 01:06:53;;;;;;;4.33;2.77;;;10.00;99.90;;;;;;5049297;28;20212;-74
2023/12/20 01:09:19;;;;;;;5.83;2.77;;;10.00;99.90;;;;;;5049907;28;20188;-73
2023/12/20 01:11:47;;;;;;;4.20;2.60;;;10.00;99.90;;;;;;5057442;28;20589;-73
2023/12/20 01:14:13;;;;;;;4.28;3.00;;;9.90;99.90;;;;;;5068582;28;20582;-74
2023/12/20 01:16:39;;;;;;;5.23;3.33;;;9.90;99.90;;;;;;5069578;28;20239;-74
2023/12/20 01:19:04;;;;;;;3.00;2.47;;;9.90;99.90;;;;;;5068383;28;20221;-73
2023/12/20 01:21:30;;;;;;;4.50;3.33;;;9.80;99.90;;;;;;5067650;28;20235;-73
2023/12/20 01:23:56;;;;;;;4.53;2.87;;;9.70;99.90;;;;;;5068692;28;20267;-74
2023/12/20 01:26:21;;;;;;;4.93;4.23;;;9.70;99.90;;;;;;5073212;28;20797;-74
2023/12/20 01:28:47;;;;;;;5.93;3.83;;;9.60;99.90;;;;;;5071967;28;20229;-74
2023/12/20 01:31:13;;;;;;;5.10;3.97;;;9.60;99.90;;;;;;5071777;28;20175;-74
2023/12/20 01:33:38;;;;;;;4.77;3.03;;;9.60;99.90;;;;;;5072417;28;20180;-73
2023/12/20 01:36:04;;;;;;;5.40;3.60;;;9.50;99.90;;;;;;5072975;28;20265;-74
2023/12/20 01:38:30;;;;;;;6.73;4.90;;;9.50;99.90;;;;;;5073452;28;20653;-74
2023/12/20 01:40:56;;;;;;;8.20;5.07;;;9.50;99.90;;;;;;5071554;28;20605;-73
2023/12/20 01:43:21;;;;;;;6.77;4.80;;;9.50;99.90;;;;;;5080101;28;20176;-73
2023/12/20 01:45:47;;;;;;;6.63;5.50;;;9.50;99.90;;;;;;5073372;28;20238;-73
2023/12/20 01:48:16;;;;;;;7.30;5.85;;;9.50;99.90;;;;;;5071846;28;20200;-74
2023/12/20 01:50:43;;;;;;;6.78;6.07;;;9.50;99.90;;;;;;5072814;28;20574;-73
2023/12/20 01:53:11;;;;;;;7.90;5.90;;;9.50;99.90;;;;;;5053268;28;20203;-73
2023/12/20 01:55:39;;;;;;;8.65;6.32;;;9.50;99.90;;;;;;5067704;28;20314;-73
2023/12/20 01:58:07;;;;;;;10.77;7.30;;;9.50;99.90;;;;;;5072430;28;20200;-75
2023/12/20 02:00:33;;;;;;;9.45;7.32;;;9.60;99.90;;;;;;5047939;28;20181;-73
2023/12/20 02:03:03;;;;;;;8.07;7.22;;;9.60;99.90;;;;;;5070569;28;20609;-73
2023/12/20 02:05:33;;;;;;;8.65;6.50;;;9.60;99.90;;;;;;5057136;28;20819;-75
2023/12/20 02:07:59;;;;;;;7.78;6.03;;;9.50;99.90;;;;;;5069150;28;20670;-75
2023/12/20 02:10:26;;;;;;;8.13;5.60;;;9.40;99.90;;;;;;5056886;28;20272;-75
2023/12/20 02:12:52;;;;;;;8.93;5.72;;;9.40;99.90;;;;;;5069811;28;20581;-74
2023/12/20 02:15:17;;;;;;;7.85;5.57;;;9.30;99.90;;;;;;5071485;28;20183;-74
2023/12/20 02:17:45;;;;;;;8.30;5.53;;;9.20;99.90;;;;;;5071501;28;20180;-74
2023/12/20 02:20:10;;;;;;;6.65;5.25;;;9.10;99.90;;;;;;5072714;28;20168;-74
2023/12/20 02:22:36;;;;;;;10.10;4.53;;;9.00;99.90;;;;;;5037770;28;20225;-74
2023/12/20 02:25:02;;;;;;;10.40;5.70;;;8.90;99.90;;;;;;5068083;28;20678;-74
2023/12/20 02:27:28;;;;;;;7.97;4.87;;;8.80;99.90;;;;;;5065536;28;20212;-74
2023/12/20 02:29:54;;;;;;;7.00;3.78;;;8.70;99.90;;;;;;5071319;28;20176;-74
2023/12/20 02:32:22;;;;;;;9.87;3.97;;;8.70;99.90;;;;;;5072271;28;20175;-74
2023/12/20 02:34:49;;;;;;;13.77;2.95;;;8.60;99.90;;;;;;5071357;28;20191;-74
2023/12/20 02:37:15;;;;;;;5.47;2.92;;;8.60;99.90;;;;;;5050762;28;20307;-74
2023/12/20 02:39:41;;;;;;;8.00;3.05;;;8.50;99.90;;;;;;5051229;28;20196;-74
2023/12/20 02:42:07;;;;;;;8.70;4.93;;;8.50;99.90;;;;;;5058673;28;20173;-74
2023/12/20 02:44:32;;;;;;;5.00;2.60;;;8.50;99.90;;;;;;5066115;28;20234;-74
2023/12/20 02:46:59;;;;;;;9.85;5.57;;;8.40;99.90;;;;;;5070817;28;20250;-74
2023/12/20 02:49:25;;;;;;;7.67;2.50;;;8.40;99.90;;;;;;5070877;28;20200;-75
2023/12/20 02:51:51;;;;;;;4.57;3.43;;;8.40;99.90;;;;;;5070394;28;20256;-74
2023/12/20 02:54:16;;;;;;;5.00;1.87;;;8.40;99.90;;;;;;5071096;28;20622;-74
2023/12/20 02:56:42;;;;;;;5.77;1.70;;;8.30;99.90;;;;;;5071267;28;20200;-74
2023/12/20 02:59:10;;;;;;;8.83;2.07;;;8.30;99.90;;;;;;5071080;28;20180;-74
2023/12/20 03:01:42;;;;;;;7.97;2.05;;;8.30;99.90;;;;;;5070213;28;20180;-74
2023/12/20 03:04:08;;;;;;;5.05;1.50;;;8.40;99.90;;;;;;5070673;28;20706;-74
2023/12/20 03:06:34;;;;;;;5.43;1.20;;;8.40;99.90;;;;;;5070392;28;20215;-74
2023/12/20 03:08:59;;;;;;;9.70;1.70;;;8.40;99.90;;;;;;5070298;28;20177;-74
2023/12/20 03:11:28;;;;;;;5.80;1.17;;;8.40;99.90;;;;;;5069849;28;20180;-75
2023/12/20 03:13:55;;;;;;;6.57;1.65;;;8.40;99.90;;;;;;5070510;28;20184;-75
2023/12/20 03:16:21;;;;;;;7.93;1.33;;;8.40;99.90;;;;;;5069959;28;20253;-75
2023/12/20 03:18:46;;;;;;;8.17;1.70;;;8.50;99.90;;;;;;5071618;28;20184;-75
2023/12/20 03:21:12;;;;;;;3.80;1.20;;;8.50;99.90;;;;;;5069531;28;20169;-75
2023/12/20 03:23:38;;;;;;;3.37;1.13;;;8.50;99.90;;;;;;5070218;28;20176;-74
2023/12/20 03:26:07;;;;;;;9.13;1.40;;;8.60;99.90;;;;;;5071205;28;20231;-75
2023/12/20 03:28:33;;;;;;;6.97;2.10;;;8.60;99.90;;;;;;5071440;28;20634;-74
2023/12/20 03:30:59;;;;;;;4.60;1.20;;;8.60;99.90;;;;;;5069455;28;20232;-75
2023/12/20 03:33:25;;;;;;;7.20;1.67;;;8.60;99.90;;;;;;5070305;28;20579;-74
2023/12/20 03:35:50;;;;;;;9.73;1.97;;;8.60;99.90;;;;;;5062292;28;20734;-74
2023/12/20 03:38:16;;;;;;;5.77;1.57;;;8.60;99.90;;;;;;5062334;28;20183;-75
2023/12/20 03:40:42;;;;;;;5.07;1.07;;;8.70;99.90;;;;;;5061699;28;20566;-74
2023/12/20 03:43:07;;;;;;;8.70;1.60;;;8.70;99.90;;;;;;5069403;28;20592;-74
2023/12/20 03:45:33;;;;;;;6.10;1.40;;;8.70;99.90;;;;;;5069902;28;20207;-74
2023/12/20 03:47:59;;;;;;;8.40;1.50;;;8.70;99.90;;;;;;5068885;28;20208;-74
2023/12/20 03:50:25;;;;;;;5.23;1.50;;;8.70;99.90;;;;;;5036514;28;20565;-75
2023/12/20 03:52:51;;;;;;;6.43;1.65;;;8.80;99.90;;;;;;5061421;28;20486;-75
2023/12/20 03:55:17;;;;;;;7.87;1.77;;;8.80;99.90;;;;;;5053172;28;20172;-75
2023/12/20 03:57:43;;;;;;;4.67;1.90;;;8.80;99.90;;;;;;5069706;28;20681;-75
2023/12/20 04:00:10;;;;;;;5.40;1.63;;;8.80;99.90;;;;;;5069545;28;21293;-74
2023/12/20 04:02:38;;;;;;;6.55;1.77;;;8.80;99.90;;;;;;5070369;28;20187;-74
2023/12/20 04:05:04;;;;;;;7.75;1.63;;;8.80;99.90;;;;;;5069589;28;20180;-74
2023/12/20 04:07:30;;;;;;;8.65;2.22;;;8.80;99.90;;;;;;5069099;28;20204;-74
2023/12/20 04:09:56;;;;;;;8.70;2.00;;;8.80;99.90;;;;;;5070980;28;20520;-74
2023/12/20 04:12:22;;;;;;;8.17;1.93;;;8.80;99.90;;;;;;5069332;28;20628;-74
2023/12/20 04:14:48;;;;;;;8.85;2.10;;;8.80;99.90;;;;;;5069531;28;20587;-75
2023/12/20 04:17:15;;;;;;;9.67;2.30;;;8.70;99.90;;;;;;5060982;28;20630;-74
2023/12/20 04:19:42;;;;;;;8.40;2.03;;;8.80;99.90;;;;;;5070793;28;20194;-74
2023/12/20 04:22:07;;;;;;;5.95;2.13;;;8.70;99.90;;;;;;5069617;28;20211;-74
2023/12/20 04:24:33;;;;;;;7.10;2.33;;;8.70;99.90;;;;;;5064569;28;20212;-74
2023/12/20 04:26:59;;;;;;;6.27;1.57;;;8.70;99.90;;;;;;5049134;28;20209;-74
2023/12/20 04:29:24;;;;;;;8.93;2.27;;;8.70;99.90;;;;;;5062459;28;20233;-74
2023/12/20 04:31:51;;;;;;;6.00;1.70;;;8.70;99.90;;;;;;5057017;28;20631;-75
2023/12/20 04:34:17;;;;;;;7.45;2.42;;;8.70;99.90;;;;;;5054359;28;20172;-74
2023/12/20 04:36:43;;;;;;;4.88;1.90;;;8.80;99.90;;;;;;5061396;28;20734;-74
2023/12/20 04:39:10;;;;;;;8.30;3.00;;;8.80;99.90;;;;;;5050422;28;20172;-74
2023/12/20 04:41:35;;;;;;;10.23;2.22;;;8.70;99.90;;;;;;5048254;28;20602;-74
2023/12/20 04:44:02;;;;;;;9.37;2.43;;;8.70;99.90;;;;;;5050443;28;20180;-74
2023/12/20 04:46:27;;;;;;;6.80;2.05;;;8.70;99.90;;;;;;5049990;28;20338;-74
2023/12/20 04:48:53;;;;;;;7.07;2.23;;;8.70;99.90;;;;;;5065826;28;20701;-74
2023/12/20 04:51:19;;;;;;;8.90;3.03;;;8.60;99.90;;;;;;5048199;28;20294;-75
2023/12/20 04:53:44;;;;;;;9.17;2.60;;;8.60;99.90;;;;;;5049228;28;20217;-74
2023/12/20 04:56:10;;;;;;;10.10;2.80;;;8.60;99.90;;;;;;5067747;28;20622;-75
2023/12/20 04:58:36;;;;;;;9.47;2.37;;;8.60;99.90;;;;;;5071366;28;20187;-74
2023/12/20 05:01:02;;;;;;;6.80;2.63;;;8.60;99.90;;;;;;5073521;28;20191;-75
2023/12/20 05:03:28;;;;;;;7.30;2.38;;;8.60;99.90;;;;;;5074408;28;20239;-75
2023/12/20 05:05:54;;;;;;;9.00;3.00;;;8.60;99.90;;;;;;5072623;28;20599;-74
2023/12/20 05:08:20;;;;;;;8.10;2.33;;;8.60;99.90;;;;;;5072776;28;21369;-75
2023/12/20 05:10:45;;;;;;;5.70;1.87;;;8.60;99.90;;;;;;5071975;28;20541;-75
2023/12/20 05:13:11;;;;;;;8.87;2.37;;;8.60;99.90;;;;;;5039575;28;20196;-75
2023/12/20 05:15:37;;;;;;;5.17;2.10;;;8.60;99.90;;;;;;5073852;28;20208;-75
2023/12/20 05:18:03;;;;;;;7.70;1.63;;;8.50;99.90;;;;;;5070761;28;20187;-75
2023/12/20 05:20:28;;;;;;;11.27;2.37;;;8.40;99.90;;;;;;5064906;28;20173;-75
2023/12/20 05:22:54;;;;;;;5.83;2.67;;;8.40;99.90;;;;;;5056815;28;21222;-74
2023/12/20 05:25:20;;;;;;;8.53;2.43;;;8.40;99.90;;;;;;5064549;28;20222;-74
2023/12/20 05:27:45;;;;;;;7.80;2.70;;;8.40;99.90;;;;;;5072243;28;20261;-74
2023/12/20 05:30:11;;;;;;;6.13;2.47;;;8.30;99.90;;;;;;5072711;28;20214;-75
2023/12/20 05:32:37;;;;;;;9.30;2.33;;;8.40;99.90;;;;;;5071627;28;20173;-74
2023/12/20 05:35:03;;;;;;;5.47;2.13;;;8.40;99.90;;;;;;5072234;28;20590;-74
2023/12/20 05:37:29;;;;;;;5.63;2.87;;;8.40;99.90;;;;;;5065165;28;20227;-74
2023/12/20 05:39:54;;;;;;;5.50;2.00;;;8.40;99.90;;;;;;5072374;28;20594;-74
2023/12/20 05:42:20;;;;;;;7.63;2.30;;;8.40;99.90;;;;;;5071542;28;20602;-74
2023/12/20 05:44:45;;;;;;;6.57;1.90;;;8.40;99.90;;;;;;5073508;28;20199;-75
2023/12/20 05:47:11;;;;;;;7.30;3.20;;;8.30;99.90;;;;;;5071750;28;20216;-75
2023/12/20 05:49:37;;;;;;;5.83;2.20;;;8.30;99.90;;;;;;5071968;28;20184;-75
2023/12/20 05:52:03;;;;;;;9.67;2.80;;;8.30;99.90;;;;;;5070231;28;20582;-74
2023/12/20 05:54:29;;;;;;;4.90;2.75;;;8.30;99.90;;;;;;5065168;28;20193;-74
2023/12/20 05:56:55;;;;;;;6.93;1.93;;;8.30;99.90;;;;;;5065115;28;20197;-74
2023/12/20 05:59:21;;;;;;;4.47;2.53;;;8.30;99.90;;;;;;5063845;28;20591;-74
2023/12/20 06:01:46;;;;;;;9.80;2.73;;;8.40;99.90;;;;;;5071593;28;20650;-75
2023/12/20 06:04:13;;;;;;;13.30;3.58;;;8.40;99.90;;;;;;5073155;28;20541;-74
2023/12/20 06:06:42;;;;;;;11.60;2.97;;;8.40;99.90;;;;;;5071693;28;20203;-74
2023/12/20 06:09:08;;;;;;;7.78;2.83;;;8.40;99.90;;;;;;5073367;28;20581;-75
2023/12/20 06:11:34;;;;;;;6.07;4.53;;;8.40;99.90;;;;;;5070464;28;20176;-74
2023/12/20 06:13:59;;;;;;;8.70;2.40;;;8.40;99.90;;;;;;5071386;28;20676;-74
2023/12/20 06:16:25;;;;;;;10.93;2.60;;;8.40;99.90;;;;;;5072357;28;20216;-75
2023/12/20 06:18:51;;;;;;;9.73;2.07;;;8.40;99.90;;;;;;5072082;28;20743;-78
2023/12/20 06:21:16;;;;;;;4.87;1.90;;;8.50;99.90;;;;;;5053294;28;20182;-81
2023/12/20 06:23:42;;;;;;;13.07;3.20;;;8.50;99.90;;;;;;5068392;28;20176;-81
2023/12/20 06:26:08;;;;;;;7.67;2.10;;;8.50;99.90;;;;;;5062792;28;20215;-79
2023/12/20 06:28:33;;;;;;;10.87;2.33;;;8.60;99.90;;;;;;5051825;28;20208;-79
2023/12/20 06:31:00;;;;;;;5.43;1.90;;;8.60;99.90;;;;;;5059455;28;20172;-79
2023/12/20 06:33:26;;;;;;;5.68;3.00;;;8.60;99.90;;;;;;5053587;28;20180;-79
2023/12/20 06:35:52;;;;;;;7.07;2.65;;;8.70;99.90;;;;;;5064562;28;20553;-80
2023/12/20 06:38:18;;;;;;;15.00;2.90;;;8.70;99.90;;;;;;5064683;28;20210;-79
2023/12/20 06:40:45;;;;;;;12.90;2.75;;;8.70;99.90;;;;;;5073179;28;21191;-79
2023/12/20 06:43:11;;;;;;;10.73;3.85;;;8.70;99.90;;;;;;5060052;28;20594;-79
2023/12/20 06:45:37;;;;;;;9.20;2.50;;;8.80;99.90;;;;;;5066895;28;20354;-79
2023/12/20 06:48:03;;;;;;;10.63;2.20;;;8.80;99.90;;;;;;5061889;28;20335;-84
2023/12/20 06:50:29;;;;;;;8.55;3.47;;;8.80;99.90;;;;;;5067353;28;20660;-83
2023/12/20 06:52:55;;;;;;;7.97;1.73;;;8.90;99.90;;;;;;5051342;28;20267;-82
2023/12/20 06:55:21;;;;;;;11.33;2.43;;;8.90;99.90;;;;;;5052360;28;20576;-83
2023/12/20 06:57:47;;;;;;;11.43;2.87;;;8.90;99.90;;;;;;5061164;28;20246;-83
2023/12/20 07:00:14;;;;;;;6.97;2.97;;;8.90;99.90;;;;;;5063634;28;20184;-83
2023/12/20 07:02:39;;;;;;;7.85;2.08;;;9.00;99.90;;;;;;5063369;28;20534;-83
2023/12/20 07:05:06;;;;;;;9.13;3.30;;;9.00;99.90;;;;;;5070650;28;20190;-86
2023/12/20 07:07:31;;;;;;;7.50;2.25;;;9.00;99.90;;;;;;5043666;28;20207;-83
2023/12/20 07:09:57;;;;;;;11.60;2.90;;;9.10;99.90;;;;;;5068561;28;20537;-79
2023/12/20 07:12:23;;;;;;;8.80;2.37;;;9.10;99.90;;;;;;5059110;28;20181;-80
2023/12/20 07:14:48;;;;;;;8.57;2.87;;;9.20;99.90;;;;;;5067996;28;20260;-80
2023/12/20 07:17:15;;;;;;;5.50;1.87;;;9.20;99.90;;;;;;5072244;28;20625;-79
2023/12/20 07:19:41;;;;;;;12.45;2.90;;;9.20;99.90;;;;;;5058089;28;20168;-79
2023/12/20 07:22:08;;;;;;;13.02;3.28;;;9.20;99.90;;;;;;5061132;28;20196;-79
2023/12/20 07:24:34;;;;;;;6.55;2.75;;;9.30;99.90;;;;;;5056139;28;20187;-78
2023/12/20 07:27:00;;;;;;;11.55;3.10;;;9.30;99.90;;;;;;5070568;28;20260;-81
2023/12/20 07:29:27;;;;;;;8.38;2.53;;;9.30;99.90;;;;;;5072263;28;20168;-82
2023/12/20 07:31:53;;;;;;;11.88;3.10;;;9.30;99.90;;;;;;5075303;28;20172;-82
2023/12/20 07:34:22;;;;;;;7.95;2.33;;;9.40;99.90;;;;;;5079730;28;20172;-81
2023/12/20 07:36:48;;;;;;;5.70;2.58;;;9.40;99.90;;;;;;5073973;28;20195;-82
2023/12/20 07:39:14;;;;;;;12.87;3.63;;;9.40;99.90;;;;;;5052269;28;20299;-81
2023/12/20 07:41:40;;;;;;;11.15;3.00;;;9.40;99.90;;;;;;5064864;28;20180;-81
2023/12/20 07:44:12;;;;;;;8.05;3.38;;;9.40;99.90;;;;;;5069723;28;20689;-82
2023/12/20 07:46:38;;;;;;;5.87;2.43;;;9.40;99.90;;;;;;5061515;28;20287;-83
2023/12/20 07:49:05;;;;;;;7.50;3.20;;;9.40;99.90;;;;;;5068672;28;20646;-83
2023/12/20 07:51:33;;;;;;;8.95;2.90;;;9.40;99.90;;;;;;5066149;28;20165;-82
2023/12/20 07:53:59;;;;;;;8.45;3.20;;;9.40;99.90;;;;;;5064268;28;20183;-79
2023/12/20 07:56:24;;;;;;;7.13;2.97;;;9.50;99.90;;;;;;5058776;28;20208;-79
2023/12/20 07:58:50;;;;;;;10.93;2.73;;;9.50;99.90;;;;;;5059990;28;20265;-81
2023/12/20 08:01:17;;;;;;;8.00;2.97;;;9.50;99.90;;;;;;5068529;28;20187;-82
2023/12/20 08:03:43;;;;;;;11.88;3.90;;;9.50;99.90;;;;;;5059215;28;20200;-82
2023/12/20 08:06:09;;;;;;;10.33;4.60;;;9.50;99.90;;;;;;5062479;28;20209;-81
2023/12/20 08:08:35;;;;;;;7.73;2.83;;;9.50;99.90;;;;;;5073797;28;20255;-81
2023/12/20 08:11:00;;;;;;;10.63;4.60;;;9.60;99.90;;;;;;5078220;28;20165;-82
2023/12/20 08:13:27;;;;;;;11.43;3.57;;;9.60;99.90;;;;;;5066329;28;20693;-82
2023/12/20 08:15:53;;;;;;;10.45;5.65;;;9.60;99.90;;;;;;5058329;28;21138;-81
2023/12/20 08:18:19;;;;;;;5.07;2.40;;;9.60;99.90;;;;;;5066829;28;20192;-81
2023/12/20 08:20:45;;;;;;;6.80;2.77;;;9.60;99.90;;;;;;5047544;28;20607;-81
2023/12/20 08:23:13;;;;;;;8.73;3.37;;;9.60;99.90;;;;;;5061442;28;20571;-81
2023/12/20 08:25:41;;;;;;;10.20;3.05;;;9.70;99.90;;;;;;5062024;28;20219;-83
2023/12/20 08:28:12;;;;;;;12.55;2.72;;;9.70;99.90;;;;;;5062037;28;20196;-84
2023/12/20 08:30:48;;;;;;;6.38;2.55;;;9.70;99.90;;;;;;5070272;28;20339;-85
2023/12/20 08:33:15;;;;;;;9.60;3.10;;;9.70;99.90;;;;;;5059154;28;20211;-83
2023/12/20 08:35:41;;;;;;;7.45;3.08;;;9.70;99.90;;;;;;5079047;28;20258;-83
2023/12/20 08:38:06;;;;;;;10.33;3.07;;;9.80;99.90;;;;;;5070957;28;20181;-82
2023/12/20 08:40:32;;;;;;;6.00;2.10;;;9.70;99.90;;;;;;5062111;28;20173;-82
2023/12/20 08:42:58;;;;;;;6.50;2.20;;;9.70;99.90;;;;;;5068759;28;20730;-85
2023/12/20 08:45:24;;;;;;;5.77;2.57;;;9.80;99.90;;;;;;5077005;28;20175;-85
2023/12/20 08:47:50;;;;;;;8.57;2.80;;;9.80;99.90;;;;;;5079041;28;20176;-84
2023/12/20 08:50:16;;;;;;;9.53;2.40;;;9.90;99.90;;;;;;5087966;28;20236;-83
2023/12/20 08:52:42;;;;;;;10.87;3.17;;;9.90;99.90;;;;;;5080933;28;20614;-83
2023/12/20 08:55:08;;;;;;;10.40;3.70;;;10.00;99.90;;;;;;5058098;28;20195;-82
2023/12/20 08:57:34;;;;;;;9.68;3.03;;;10.00;99.90;;;;;;5028935;28;20189;-86
2023/12/20 08:59:59;;;;;;;9.03;2.70;;;10.00;99.90;;;;;;5053366;28;20224;-83
2023/12/20 09:02:25;;;;;;;6.30;2.90;;;10.00;99.90;;;;;;5057063;28;20205;-86
2023/12/20 09:04:51;;;;;;;10.27;2.67;;;10.00;99.90;;;;;;5062619;28;20200;-84
2023/12/20 09:07:27;;;;;;;8.10;2.60;;;10.10;99.90;;;;;;5065670;28;20223;-85
2023/12/20 09:09:53;;;;;;;6.78;3.25;;;10.10;99.90;;;;;;5068310;28;20185;-83
2023/12/20 09:12:19;;;;;;;7.03;2.60;;;10.10;99.90;;;;;;5034527;28;20241;-83
2023/12/20 09:14:49;;;;;;;5.20;2.58;;;10.10;99.90;;;;;;5071041;28;20618;-86
2023/12/20 09:17:17;;;;;;;7.40;4.10;;;10.10;99.90;;;;;;5060670;28;20228;-83
2023/12/20 09:19:43;;;;;;;9.60;3.10;;;10.00;99.90;;;;;;5047041;28;20173;-85
2023/12/20 09:22:10;;;;;;;11.40;3.60;;;10.10;99.90;;;;;;5067795;28;20205;-84
2023/12/20 09:24:35;;;;;;;10.25;2.47;;;10.00;99.90;;;;;;5059044;28;20202;-85
2023/12/20 09:27:02;;;;;;;6.70;2.43;;;10.00;99.90;;;;;;5067634;28;20276;-84
2023/12/20 09:29:28;;;;;;;8.38;3.00;;;10.00;99.90;;;;;;5041368;28;20188;-84
2023/12/20 09:31:54;;;;;;;7.73;1.93;;;10.00;99.90;;;;;;5038258;28;20185;-82
2023/12/20 09:34:19;;;;;;;8.53;2.03;;;10.00;99.90;;;;;;5056475;28;20670;-84
2023/12/20 09:36:46;;;;;;;7.07;2.07;;;10.00;99.90;;;;;;5043533;28;20911;-84
2023/12/20 09:39:26;;;;;;;10.32;2.20;;;10.00;99.90;;;;;;5050142;28;20174;-85
2023/12/20 09:42:05;;;;;;;4.88;1.50;;;10.00;99.90;;;;;;5057541;28;20176;-86
2023/12/20 09:44:36;;;;;;;6.28;1.70;;;10.00;99.90;;;;;;5053065;28;20232;-83
2023/12/20 09:47:03;;;;;;;9.07;2.85;;;10.00;99.90;;;;;;5071353;28;20201;-81
2023/12/20 09:49:30;;;;;;;7.55;2.40;;;10.10;99.90;;;;;;5035935;28;20204;-80
2023/12/20 09:51:56;;;;;;;12.38;2.88;;;10.10;99.90;;;;;;5019527;28;20629;-80
2023/12/20 09:54:23;;;;;;;10.82;2.47;;;10.20;99.90;;;;;;5039358;28;20230;-80
2023/12/20 09:56:55;;;;;;;8.57;2.78;;;10.20;99.90;;;;;;5035996;28;20194;-85
2023/12/20 09:59:21;;;;;;;12.20;2.20;;;10.20;99.90;;;;;;5031764;28;20182;-81
2023/12/20 10:01:48;;;;;;;5.83;2.00;;;10.20;99.90;;;;;;5042469;28;20180;-81
2023/12/20 10:04:15;;;;;;;8.35;2.50;;;10.20;99.90;;;;;;5044387;28;20604;-82
2023/12/20 10:06:42;;;;;;;6.65;2.30;;;10.20;99.90;;;;;;5035580;28;20215;-82
2023/12/20 10:09:09;;;;;;;5.10;1.70;;;10.20;99.90;;;;;;5030910;28;20689;-82
2023/12/20 10:11:39;;;;;;;7.35;2.25;;;10.20;99.90;;;;;;5034812;28;20248;-83
2023/12/20 10:14:10;;;;;;;6.22;1.50;;;10.20;99.90;;;;;;5032969;28;20212;-82
2023/12/20 10:16:36;;;;;;;6.25;1.70;;;10.20;99.90;;;;;;5031388;28;20220;-81
2023/12/20 10:19:02;;;;;;;10.83;2.70;;;10.20;99.90;;;;;;5038355;28;20174;-79
2023/12/20 10:21:28;;;;;;;8.67;3.00;;;10.20;99.90;;;;;;5022929;28;20240;-79
2023/12/20 10:23:55;;;;;;;6.87;2.33;;;10.20;99.90;;;;;;5045038;28;20967;-79
2023/12/20 10:26:25;;;;;;;4.43;2.33;;;10.20;99.90;;;;;;5041544;28;20604;-79
2023/12/20 10:28:54;;;;;;;9.45;2.25;;;10.20;99.90;;;;;;5030868;28;20264;-79
2023/12/20 10:31:27;;;;;;;11.65;3.20;;;10.30;99.90;;;;;;5041043;28;20292;-80
2023/12/20 10:33:53;;;;;;;8.85;3.05;;;10.30;99.90;;;;;;5044757;28;20173;-80
2023/12/20 10:36:18;;;;;;;11.30;3.40;;;10.30;99.90;;;;;;5040549;28;20770;-82
2023/12/20 10:38:46;;;;;;;10.30;3.73;;;10.40;99.90;;;;;;5041714;28;20220;-82
2023/12/20 10:41:16;;;;;;;7.20;2.60;;;10.40;99.90;;;;;;5017870;28;20211;-81
2023/12/20 10:43:43;;;;;;;11.93;3.13;;;10.40;99.90;;;;;;5041450;28;20201;-81
2023/12/20 10:46:09;;;;;;;6.85;2.90;;;10.50;99.90;;;;;;5043098;28;20193;-81
2023/12/20 10:48:35;;;;;;;7.80;3.43;;;10.50;99.90;;;;;;5039594;28;20227;-80
2023/12/20 10:51:01;;;;;;;7.22;2.85;;;10.50;99.90;;;;;;5029463;28;20615;-81
2023/12/20 10:53:27;;;;;;;5.35;2.70;;;10.50;99.90;;;;;;5029667;28;20212;-80
2023/12/20 10:55:55;;;;;;;11.40;3.07;;;10.50;99.90;;;;;;5029784;28;20681;-81
2023/12/20 10:58:24;;;;;;;8.38;3.35;;;10.50;99.90;;;;;;5031386;28;20950;-81
2023/12/20 11:00:56;;;;;;;6.95;2.65;;;10.40;99.90;;;;;;5042701;28;20188;-84
2023/12/20 11:03:24;;;;;;;9.90;3.17;;;10.40;99.90;;;;;;5030218;28;20573;-82
2023/12/20 11:05:59;;;;;;;10.38;2.65;;;10.50;99.90;;;;;;5028869;28;20200;-82
2023/12/20 11:08:33;;;;;;;4.32;1.65;;;10.40;99.90;;;;;;5039951;28;20193;-82
2023/12/20 11:11:28;;;;;;;6.00;2.13;;;10.40;99.90;;;;;;5040987;28;20180;-83
2023/12/20 11:13:56;;;;;;;7.60;1.90;;;10.30;99.90;;;;;;5031446;28;20196;-83
2023/12/20 11:16:22;;;;;;;7.53;2.63;;;10.30;99.90;;;;;;5023238;28;20204;-83
2023/12/20 11:18:51;;;;;;;6.53;1.60;;;10.30;99.90;;;;;;5041392;28;20172;-84
2023/12/20 11:21:16;;;;;;;5.22;1.83;;;10.30;99.90;;;;;;5040575;28;20646;-84
2023/12/20 11:23:42;;;;;;;5.30;1.40;;;10.30;99.90;;;;;;5043654;28;20201;-83
2023/12/20 11:26:08;;;;;;;8.07;2.00;;;10.30;99.90;;;;;;5042801;28;20200;-85
2023/12/20 11:28:37;;;;;;;8.13;3.40;;;10.40;99.90;;;;;;5033133;28;20247;-84
2023/12/20 11:31:03;;;;;;;9.68;2.45;;;10.40;99.90;;;;;;5047129;28;20217;-82
2023/12/20 11:33:37;;;;;;;6.27;2.00;;;10.40;99.90;;;;;;5030186;28;20189;-83
2023/12/20 11:36:03;;;;;;;7.20;1.83;;;10.40;99.90;;;;;;5040061;28;20236;-83
2023/12/20 11:38:37;;;;;;;6.30;1.90;;;10.50;99.90;;;;;;5021133;28;20223;-85
2023/12/20 11:41:06;;;;;;;7.90;1.70;;;10.50;99.90;;;;;;5041407;28;20177;-88
2023/12/20 11:43:35;;;;;;;8.73;1.58;;;10.50;99.90;;;;;;5071550;28;20196;-84
2023/12/20 11:46:05;;;;;;;6.97;2.00;;;10.60;99.90;;;;;;5051083;28;20193;-82
2023/12/20 11:48:31;;;;;;;9.88;3.20;;;10.70;99.90;;;;;;5024376;28;20173;-82
2023/12/20 11:50:57;;;;;;;4.45;1.83;;;10.80;99.90;;;;;;5036407;28;20252;-84
2023/12/20 11:53:23;;;;;;;7.07;1.50;;;10.80;99.90;;;;;;5022368;28;20268;-84
2023/12/20 11:55:49;;;;;;;7.03;2.27;;;10.80;99.90;;;;;;5020430;28;20565;-84
2023/12/20 11:58:16;;;;;;;12.13;3.05;;;10.80;99.90;;;;;;5007320;28;20243;-84
2023/12/20 12:00:43;;;;;;;9.70;3.25;;;10.90;99.90;;;;;;5035068;28;20231;-82
2023/12/20 12:03:09;;;;;;;10.15;2.55;;;10.80;99.90;;;;;;5022000;28;20236;-83
2023/12/20 12:05:35;;;;;;;5.32;2.33;;;10.90;99.90;;;;;;5045918;28;20173;-82
2023/12/20 12:08:02;;;;;;;11.30;2.80;;;10.80;99.90;;;;;;5026788;28;20536;-83
2023/12/20 12:10:29;;;;;;;6.00;2.33;;;10.80;99.90;;;;;;5039008;28;20206;-79
2023/12/20 12:12:55;;;;;;;9.52;2.40;;;10.80;99.90;;;;;;5033797;28;20645;-80
2023/12/20 12:15:21;;;;;;;10.87;2.30;;;10.70;99.90;;;;;;5030732;28;20212;-80
2023/12/20 12:17:57;;;;;;;8.73;2.80;;;10.70;99.90;;;;;;5027876;28;20632;-79
2023/12/20 12:20:24;;;;;;;8.13;2.65;;;10.70;99.90;;;;;;5019709;28;20616;-79
2023/12/20 12:23:03;;;;;;;8.27;2.58;;;10.70;99.90;;;;;;5029601;28;20754;-79
2023/12/20 12:25:33;;;;;;;6.53;2.13;;;10.70;99.90;;;;;;5029735;28;20264;-79
2023/12/20 12:27:59;;;;;;;6.85;2.05;;;10.60;99.90;;;;;;5021530;28;20184;-86
2023/12/20 12:30:27;;;;;;;6.20;1.90;;;10.60;99.90;;;;;;5047836;28;20184;-85
2023/12/20 12:32:55;;;;;;;7.63;2.67;;;10.60;99.90;;;;;;5044391;28;20177;-84
2023/12/20 12:35:21;;;;;;;5.80;2.80;;;10.60;99.90;;;;;;5034795;28;20177;-83
2023/12/20 12:37:47;;;;;;;6.95;3.05;;;10.60;99.90;;;;;;5044896;28;20181;-84
2023/12/20 12:40:15;;;;;;;5.57;2.50;;;10.60;99.90;;;;;;5054716;28;20243;-84
2023/12/20 12:42:43;;;;;;;7.47;2.97;;;10.60;99.90;;;;;;5056956;28;20253;-86
2023/12/20 12:45:11;;;;;;;12.43;2.90;;;10.60;99.90;;;;;;5024363;28;20174;-85
2023/12/20 12:47:37;;;;;;;7.78;2.90;;;10.60;99.90;;;;;;5049443;28;20208;-87